sensor_id;sensor_type;location;lat;lon;timestamp;pressure;altitude;pressure_sealevel;temperature;humidity
45255;BME280;30989;52.078;21.014;2023-03-15T00:00:27;165853.78;;;8.01;100.00
45255;BME280;30989;52.078;21.014;2023-03-15T00:02:53;165864.47;;;8.05;100.00
45255;BME280;30989;52.078;21.014;2023-03-15T00:05:18;165869.81;;;8.07;100.00
45255;BME280;30989;52.078;21.014;2023-03-15T00:07:44;165871.16;;;8.08;100.00
45255;BME280;30989;52.078;21.014;2023-03-15T00:10:10;165868.47;;;8.07;100.00
45255;BME280;30989;52.078;21.014;2023-03-15T00:12:35;165877.84;;;8.11;100.00
45255;BME280;30989;52.078;21.014;2023-03-15T00:15:00;165881.84;;;8.12;100.00
45255;BME280;30989;52.078;21.014;2023-03-15T00:17:26;165885.88;;;8.14;100.00
45255;BME280;30989;52.078;21.014;2023-03-15T00:19:51;165880.50;;;8.12;100.00
45255;BME280;30989;52.078;21.014;2023-03-15T00:22:17;165883.19;;;8.13;100.00
45255;BME280;30989;52.078;21.014;2023-03-15T00:24:42;165888.53;;;8.15;100.00
45255;BME280;30989;52.078;21.014;2023-03-15T00:27:08;165887.22;;;8.14;100.00
45255;BME280;30989;52.078;21.014;2023-03-15T00:29:34;165892.56;;;8.16;100.00
45255;BME280;30989;52.078;21.014;2023-03-15T00:31:59;165885.88;;;8.14;100.00
45255;BME280;30989;52.078;21.014;2023-03-15T00:34:25;165873.84;;;8.09;100.00
45255;BME280;30989;52.078;21.014;2023-03-15T00:36:51;165903.25;;;8.20;100.00
45255;BME280;30989;52.078;21.014;2023-03-15T00:39:21;165880.50;;;8.12;100.00
45255;BME280;30989;52.078;21.014;2023-03-15T00:41:46;165897.91;;;8.18;100.00
45255;BME280;30989;52.078;21.014;2023-03-15T00:44:12;165856.44;;;8.02;100.00
45255;BME280;30989;52.078;21.014;2023-03-15T00:46:38;165757.50;;;7.65;100.00
45255;BME280;30989;52.078;21.014;2023-03-15T00:49:03;165658.59;;;7.27;100.00
45255;BME280;30989;52.078;21.014;2023-03-15T00:51:29;165603.81;;;7.06;100.00
45255;BME280;30989;52.078;21.014;2023-03-15T00:53:54;165551.69;;;6.87;100.00
45255;BME280;30989;52.078;21.014;2023-03-15T00:56:24;165475.56;;;6.58;100.00
45255;BME280;30989;52.078;21.014;2023-03-15T00:58:51;165391.41;;;6.26;100.00
45255;BME280;30989;52.078;21.014;2023-03-15T01:01:22;165321.97;;;5.99;100.00
45255;BME280;30989;52.078;21.014;2023-03-15T01:03:48;165247.13;;;5.71;100.00
45255;BME280;30989;52.078;21.014;2023-03-15T01:06:15;165196.41;;;5.52;100.00
45255;BME280;30989;52.078;21.014;2023-03-15T01:08:42;165141.69;;;5.31;100.00
45255;BME280;30989;52.078;21.014;2023-03-15T01:11:11;165076.25;;;5.06;100.00
45255;BME280;30989;52.078;21.014;2023-03-15T01:13:37;164985.50;;;4.71;100.00
45255;BME280;30989;52.078;21.014;2023-03-15T01:16:03;164920.13;;;4.46;100.00
45255;BME280;30989;52.078;21.014;2023-03-15T01:18:29;164860.13;;;4.24;100.00
45255;BME280;30989;52.078;21.014;2023-03-15T01:20:56;164797.44;;;4.00;100.00
45255;BME280;30989;52.078;21.014;2023-03-15T01:23:22;164766.78;;;3.88;100.00
45255;BME280;30989;52.078;21.014;2023-03-15T01:25:47;164726.78;;;3.73;100.00
45255;BME280;30989;52.078;21.014;2023-03-15T01:28:13;164701.44;;;3.63;100.00
45255;BME280;30989;52.078;21.014;2023-03-15T01:30:39;164682.78;;;3.56;100.00
45255;BME280;30989;52.078;21.014;2023-03-15T01:33:06;164660.13;;;3.47;100.00
45255;BME280;30989;52.078;21.014;2023-03-15T01:35:32;164626.81;;;3.35;100.00
45255;BME280;30989;52.078;21.014;2023-03-15T01:37:58;164602.81;;;3.26;100.00
45255;BME280;30989;52.078;21.014;2023-03-15T01:40:24;164592.16;;;3.21;100.00
45255;BME280;30989;52.078;21.014;2023-03-15T01:45:50;164576.16;;;3.15;100.00
45255;BME280;30989;52.078;21.014;2023-03-15T01:48:17;164569.50;;;3.13;100.00
45255;BME280;30989;52.078;21.014;2023-03-15T01:50:43;164557.50;;;3.08;100.00
45255;BME280;30989;52.078;21.014;2023-03-15T01:53:09;164566.81;;;3.12;100.00
45255;BME280;30989;52.078;21.014;2023-03-15T01:55:36;164564.16;;;3.11;100.00
45255;BME280;30989;52.078;21.014;2023-03-15T01:58:09;164561.50;;;3.10;100.00
45255;BME280;30989;52.078;21.014;2023-03-15T02:00:39;164542.84;;;3.03;100.00
45255;BME280;30989;52.078;21.014;2023-03-15T02:03:17;164548.16;;;3.05;100.00
45255;BME280;30989;52.078;21.014;2023-03-15T02:05:49;164541.50;;;3.02;100.00
45255;BME280;30989;52.078;21.014;2023-03-15T02:08:31;164536.19;;;3.00;100.00
45255;BME280;30989;52.078;21.014;2023-03-15T02:10:59;164537.50;;;3.01;100.00
45255;BME280;30989;52.078;21.014;2023-03-15T02:13:28;164534.84;;;3.00;100.00
45255;BME280;30989;52.078;21.014;2023-03-15T02:15:57;164516.19;;;2.92;100.00
45255;BME280;30989;52.078;21.014;2023-03-15T02:18:31;164530.84;;;2.98;100.00
45255;BME280;30989;52.078;21.014;2023-03-15T02:26:52;164528.19;;;2.97;100.00
45255;BME280;30989;52.078;21.014;2023-03-15T02:29:18;164529.50;;;2.98;100.00
45255;BME280;30989;52.078;21.014;2023-03-15T02:31:47;164529.50;;;2.98;100.00
45255;BME280;30989;52.078;21.014;2023-03-15T02:34:12;164501.53;;;2.87;100.00
45255;BME280;30989;52.078;21.014;2023-03-15T02:36:39;164512.19;;;2.91;100.00
45255;BME280;30989;52.078;21.014;2023-03-15T02:39:16;164513.53;;;2.91;100.00
45255;BME280;30989;52.078;21.014;2023-03-15T02:41:55;164514.84;;;2.92;100.00
45255;BME280;30989;52.078;21.014;2023-03-15T02:44:26;164509.53;;;2.90;100.00
45255;BME280;30989;52.078;21.014;2023-03-15T02:46:54;164494.88;;;2.84;100.00
45255;BME280;30989;52.078;21.014;2023-03-15T02:49:25;164492.22;;;2.83;100.00
45255;BME280;30989;52.078;21.014;2023-03-15T02:51:52;164484.22;;;2.80;100.00
45255;BME280;30989;52.078;21.014;2023-03-15T02:54:18;164481.53;;;2.79;100.00
45255;BME280;30989;52.078;21.014;2023-03-15T02:56:43;164476.22;;;2.77;100.00
45255;BME280;30989;52.078;21.014;2023-03-15T02:59:09;164478.88;;;2.78;100.00
45255;BME280;30989;52.078;21.014;2023-03-15T03:01:37;164476.22;;;2.77;100.00
45255;BME280;30989;52.078;21.014;2023-03-15T03:04:03;164473.56;;;2.76;100.00
45255;BME280;30989;52.078;21.014;2023-03-15T03:06:28;164474.88;;;2.77;100.00
45255;BME280;30989;52.078;21.014;2023-03-15T03:08:54;164461.56;;;2.72;100.00
45255;BME280;30989;52.078;21.014;2023-03-15T03:11:19;164478.88;;;2.78;100.00
45255;BME280;30989;52.078;21.014;2023-03-15T03:13:45;164476.22;;;2.77;100.00
45255;BME280;30989;52.078;21.014;2023-03-15T03:16:10;164472.22;;;2.76;100.00
45255;BME280;30989;52.078;21.014;2023-03-15T03:18:37;164485.53;;;2.81;100.00
45255;BME280;30989;52.078;21.014;2023-03-15T03:21:05;164476.22;;;2.77;100.00
45255;BME280;30989;52.078;21.014;2023-03-15T03:23:33;164477.56;;;2.78;100.00
45255;BME280;30989;52.078;21.014;2023-03-15T03:26:00;164476.22;;;2.77;100.00
45255;BME280;30989;52.078;21.014;2023-03-15T03:28:28;164474.88;;;2.77;100.00
45255;BME280;30989;52.078;21.014;2023-03-15T03:30:54;164472.22;;;2.76;100.00
45255;BME280;30989;52.078;21.014;2023-03-15T03:33:21;164462.91;;;2.72;100.00
45255;BME280;30989;52.078;21.014;2023-03-15T03:35:48;164473.56;;;2.76;100.00
45255;BME280;30989;52.078;21.014;2023-03-15T03:38:14;164481.53;;;2.79;100.00
45255;BME280;30989;52.078;21.014;2023-03-15T03:40:44;164480.22;;;2.79;100.00
45255;BME280;30989;52.078;21.014;2023-03-15T03:43:10;164450.91;;;2.68;100.00
45255;BME280;30989;52.078;21.014;2023-03-15T03:45:35;164482.88;;;2.80;100.00
45255;BME280;30989;52.078;21.014;2023-03-15T03:48:01;164480.22;;;2.79;100.00
45255;BME280;30989;52.078;21.014;2023-03-15T03:50:27;164462.91;;;2.72;100.00
45255;BME280;30989;52.078;21.014;2023-03-15T03:52:53;164470.88;;;2.75;100.00
45255;BME280;30989;52.078;21.014;2023-03-15T03:55:26;164478.88;;;2.78;100.00
45255;BME280;30989;52.078;21.014;2023-03-15T03:57:52;164492.22;;;2.83;100.00
45255;BME280;30989;52.078;21.014;2023-03-15T04:00:33;164486.88;;;2.81;100.00
45255;BME280;30989;52.078;21.014;2023-03-15T04:02:59;164476.22;;;2.77;100.00
45255;BME280;30989;52.078;21.014;2023-03-15T04:05:27;164486.88;;;2.81;100.00
45255;BME280;30989;52.078;21.014;2023-03-15T04:07:53;164476.22;;;2.77;100.00
45255;BME280;30989;52.078;21.014;2023-03-15T04:10:19;164492.22;;;2.83;100.00
45255;BME280;30989;52.078;21.014;2023-03-15T04:12:55;164476.22;;;2.77;100.00
45255;BME280;30989;52.078;21.014;2023-03-15T04:15:22;164504.19;;;2.88;100.00
45255;BME280;30989;52.078;21.014;2023-03-15T04:17:52;164494.88;;;2.84;100.00
45255;BME280;30989;52.078;21.014;2023-03-15T04:20:22;164485.53;;;2.81;100.00
45255;BME280;30989;52.078;21.014;2023-03-15T04:22:48;164484.22;;;2.80;100.00
45255;BME280;30989;52.078;21.014;2023-03-15T04:25:50;164458.91;;;2.71;100.00
45255;BME280;30989;52.078;21.014;2023-03-15T04:28:53;164465.56;;;2.73;100.00
45255;BME280;30989;52.078;21.014;2023-03-15T04:31:31;164450.91;;;2.68;100.00
45255;BME280;30989;52.078;21.014;2023-03-15T04:34:13;164457.56;;;2.70;100.00
45255;BME280;30989;52.078;21.014;2023-03-15T04:36:55;164440.25;;;2.64;100.00
45255;BME280;30989;52.078;21.014;2023-03-15T04:39:40;164433.59;;;2.61;100.00
45255;BME280;30989;52.078;21.014;2023-03-15T04:42:27;164434.91;;;2.62;100.00
45255;BME280;30989;52.078;21.014;2023-03-15T04:45:22;164417.59;;;2.55;100.00
45255;BME280;30989;52.078;21.014;2023-03-15T04:48:17;164436.25;;;2.62;100.00
45255;BME280;30989;52.078;21.014;2023-03-15T04:51:03;164422.94;;;2.57;100.00
45255;BME280;30989;52.078;21.014;2023-03-15T04:53:37;164417.59;;;2.55;100.00
45255;BME280;30989;52.078;21.014;2023-03-15T04:56:22;164421.59;;;2.56;100.00
45255;BME280;30989;52.078;21.014;2023-03-15T04:59:14;164430.91;;;2.60;100.00
45255;BME280;30989;52.078;21.014;2023-03-15T05:01:58;164425.59;;;2.58;100.00
45255;BME280;30989;52.078;21.014;2023-03-15T05:04:46;164428.25;;;2.59;100.00
45255;BME280;30989;52.078;21.014;2023-03-15T05:07:33;164433.59;;;2.61;100.00
45255;BME280;30989;52.078;21.014;2023-03-15T05:10:15;164436.25;;;2.62;100.00
45255;BME280;30989;52.078;21.014;2023-03-15T05:12:53;164433.59;;;2.61;100.00
45255;BME280;30989;52.078;21.014;2023-03-15T05:15:35;164436.25;;;2.62;100.00
45255;BME280;30989;52.078;21.014;2023-03-15T05:18:22;164436.25;;;2.62;100.00
45255;BME280;30989;52.078;21.014;2023-03-15T05:21:23;164430.91;;;2.60;100.00
45255;BME280;30989;52.078;21.014;2023-03-15T05:24:13;164425.59;;;2.58;100.00
45255;BME280;30989;52.078;21.014;2023-03-15T05:26:50;164421.59;;;2.56;100.00
45255;BME280;30989;52.078;21.014;2023-03-15T05:29:36;164428.25;;;2.59;100.00
45255;BME280;30989;52.078;21.014;2023-03-15T05:32:25;164430.91;;;2.60;100.00
45255;BME280;30989;52.078;21.014;2023-03-15T05:35:11;164430.91;;;2.60;100.00
45255;BME280;30989;52.078;21.014;2023-03-15T05:37:55;164436.25;;;2.62;100.00
45255;BME280;30989;52.078;21.014;2023-03-15T05:40:44;164404.28;;;2.50;100.00
45255;BME280;30989;52.078;21.014;2023-03-15T05:43:32;164422.94;;;2.57;100.00
45255;BME280;30989;52.078;21.014;2023-03-15T05:46:16;164430.91;;;2.60;100.00
45255;BME280;30989;52.078;21.014;2023-03-15T05:49:00;164452.25;;;2.68;100.00
45255;BME280;30989;52.078;21.014;2023-03-15T05:51:31;164457.56;;;2.70;100.00
45255;BME280;30989;52.078;21.014;2023-03-15T05:54:17;164460.22;;;2.71;100.00
45255;BME280;30989;52.078;21.014;2023-03-15T05:56:57;164452.25;;;2.68;100.00
45255;BME280;30989;52.078;21.014;2023-03-15T05:59:34;164444.25;;;2.65;100.00
45255;BME280;30989;52.078;21.014;2023-03-15T06:02:15;164449.56;;;2.67;100.00
45255;BME280;30989;52.078;21.014;2023-03-15T06:04:50;164452.25;;;2.68;100.00
45255;BME280;30989;52.078;21.014;2023-03-15T06:07:19;164461.56;;;2.72;100.00
45255;BME280;30989;52.078;21.014;2023-03-15T06:09:45;164462.91;;;2.72;100.00
45255;BME280;30989;52.078;21.014;2023-03-15T06:12:11;164481.53;;;2.79;100.00
45255;BME280;30989;52.078;21.014;2023-03-15T06:14:38;164486.88;;;2.81;100.00
45255;BME280;30989;52.078;21.014;2023-03-15T06:17:06;164489.53;;;2.82;100.00
45255;BME280;30989;52.078;21.014;2023-03-15T06:19:32;164518.84;;;2.94;100.00
45255;BME280;30989;52.078;21.014;2023-03-15T06:22:01;164509.53;;;2.90;100.00
45255;BME280;30989;52.078;21.014;2023-03-15T06:24:34;164500.19;;;2.86;100.00
45255;BME280;30989;52.078;21.014;2023-03-15T06:27:00;164493.53;;;2.84;100.00
45255;BME280;30989;52.078;21.014;2023-03-15T06:29:28;164492.22;;;2.83;100.00
45255;BME280;30989;52.078;21.014;2023-03-15T06:31:55;164494.88;;;2.84;100.00
45255;BME280;30989;52.078;21.014;2023-03-15T06:34:23;164516.19;;;2.92;100.00
45255;BME280;30989;52.078;21.014;2023-03-15T06:36:49;164530.84;;;2.98;100.00
45255;BME280;30989;52.078;21.014;2023-03-15T06:39:17;164530.84;;;2.98;100.00
45255;BME280;30989;52.078;21.014;2023-03-15T06:41:43;164537.50;;;3.01;100.00
45255;BME280;30989;52.078;21.014;2023-03-15T06:44:14;164540.16;;;3.02;100.00
45255;BME280;30989;52.078;21.014;2023-03-15T06:46:40;164529.50;;;2.98;100.00
45255;BME280;30989;52.078;21.014;2023-03-15T06:49:06;164528.19;;;2.97;100.00
45255;BME280;30989;52.078;21.014;2023-03-15T06:51:31;164509.53;;;2.90;100.00
45255;BME280;30989;52.078;21.014;2023-03-15T06:53:57;164529.50;;;2.98;100.00
45255;BME280;30989;52.078;21.014;2023-03-15T06:56:22;164538.84;;;3.01;100.00
45255;BME280;30989;52.078;21.014;2023-03-15T06:58:48;164550.84;;;3.06;100.00
45255;BME280;30989;52.078;21.014;2023-03-15T07:01:14;164560.16;;;3.09;100.00
45255;BME280;30989;52.078;21.014;2023-03-15T07:03:40;164572.16;;;3.14;99.30
45255;BME280;30989;52.078;21.014;2023-03-15T07:06:06;164572.16;;;3.14;98.02
45255;BME280;30989;52.078;21.014;2023-03-15T07:08:32;164580.16;;;3.17;98.37
45255;BME280;30989;52.078;21.014;2023-03-15T07:10:57;164582.81;;;3.18;97.69
45255;BME280;30989;52.078;21.014;2023-03-15T07:13:23;164578.81;;;3.16;98.31
45255;BME280;30989;52.078;21.014;2023-03-15T07:15:52;164572.16;;;3.14;97.71
45255;BME280;30989;52.078;21.014;2023-03-15T07:18:18;164566.81;;;3.12;97.37
45255;BME280;30989;52.078;21.014;2023-03-15T07:20:43;164572.16;;;3.14;96.88
45255;BME280;30989;52.078;21.014;2023-03-15T07:23:08;164552.16;;;3.06;96.97
45255;BME280;30989;52.078;21.014;2023-03-15T07:25:34;164558.81;;;3.09;95.23
45255;BME280;30989;52.078;21.014;2023-03-15T07:27:59;164552.16;;;3.06;94.62
45255;BME280;30989;52.078;21.014;2023-03-15T07:30:25;164546.84;;;3.04;95.59
45255;BME280;30989;52.078;21.014;2023-03-15T07:32:50;164521.50;;;2.95;95.58
45255;BME280;30989;52.078;21.014;2023-03-15T07:35:16;164532.19;;;2.99;96.32
45255;BME280;30989;52.078;21.014;2023-03-15T07:37:42;164560.16;;;3.09;96.98
45255;BME280;30989;52.078;21.014;2023-03-15T07:40:08;164572.16;;;3.14;96.55
45255;BME280;30989;52.078;21.014;2023-03-15T07:42:35;164566.81;;;3.12;97.07
45255;BME280;30989;52.078;21.014;2023-03-15T07:45:02;164576.16;;;3.15;97.61
45255;BME280;30989;52.078;21.014;2023-03-15T07:47:28;164574.81;;;3.15;97.53
45255;BME280;30989;52.078;21.014;2023-03-15T07:49:53;164570.81;;;3.13;97.83
45255;BME280;30989;52.078;21.014;2023-03-15T07:52:19;164566.81;;;3.12;97.71
45255;BME280;30989;52.078;21.014;2023-03-15T07:54:45;164569.50;;;3.13;97.89
45255;BME280;30989;52.078;21.014;2023-03-15T07:57:11;164569.50;;;3.13;98.12
45255;BME280;30989;52.078;21.014;2023-03-15T07:59:37;164561.50;;;3.10;97.67
45255;BME280;30989;52.078;21.014;2023-03-15T08:02:02;164574.81;;;3.15;97.61
45255;BME280;30989;52.078;21.014;2023-03-15T08:04:28;164588.16;;;3.20;97.86
45255;BME280;30989;52.078;21.014;2023-03-15T08:06:54;164588.16;;;3.20;95.76
45255;BME280;30989;52.078;21.014;2023-03-15T08:09:19;164593.47;;;3.22;95.36
45255;BME280;30989;52.078;21.014;2023-03-15T08:11:44;164601.47;;;3.25;95.23
45255;BME280;30989;52.078;21.014;2023-03-15T08:14:10;164614.81;;;3.30;95.22
45255;BME280;30989;52.078;21.014;2023-03-15T08:16:35;164644.13;;;3.41;94.09
45255;BME280;30989;52.078;21.014;2023-03-15T08:19:01;164668.13;;;3.50;91.83
45255;BME280;30989;52.078;21.014;2023-03-15T08:21:26;164696.13;;;3.61;94.48
45255;BME280;30989;52.078;21.014;2023-03-15T08:23:51;164742.78;;;3.79;93.62
45255;BME280;30989;52.078;21.014;2023-03-15T08:26:17;164780.09;;;3.93;91.01
45255;BME280;30989;52.078;21.014;2023-03-15T08:28:42;164800.09;;;4.01;92.15
45255;BME280;30989;52.078;21.014;2023-03-15T08:31:08;164802.78;;;4.02;91.94
45255;BME280;30989;52.078;21.014;2023-03-15T08:33:34;164788.09;;;3.96;90.92
45255;BME280;30989;52.078;21.014;2023-03-15T08:35:59;164756.09;;;3.84;86.03
45255;BME280;30989;52.078;21.014;2023-03-15T08:38:25;164744.09;;;3.79;87.89
45255;BME280;30989;52.078;21.014;2023-03-15T08:40:55;164761.44;;;3.86;87.99
45255;BME280;30989;52.078;21.014;2023-03-15T08:43:21;164772.09;;;3.90;88.89
45255;BME280;30989;52.078;21.014;2023-03-15T08:45:47;164778.78;;;3.93;87.68
45255;BME280;30989;52.078;21.014;2023-03-15T08:48:14;164793.44;;;3.98;86.17
45255;BME280;30989;52.078;21.014;2023-03-15T08:50:39;164789.44;;;3.97;86.39
45255;BME280;30989;52.078;21.014;2023-03-15T08:53:05;164809.44;;;4.04;87.82
45255;BME280;30989;52.078;21.014;2023-03-15T08:55:30;164857.44;;;4.22;86.96
45255;BME280;30989;52.078;21.014;2023-03-15T08:57:56;164864.13;;;4.25;87.04
45255;BME280;30989;52.078;21.014;2023-03-15T09:00:21;164862.78;;;4.25;83.92
45255;BME280;30989;52.078;21.014;2023-03-15T09:02:50;164882.78;;;4.32;84.85
45255;BME280;30989;52.078;21.014;2023-03-15T09:05:21;164893.47;;;4.36;82.01
45255;BME280;30989;52.078;21.014;2023-03-15T09:07:47;164898.81;;;4.38;81.80
45255;BME280;30989;52.078;21.014;2023-03-15T09:10:14;164897.47;;;4.38;79.61
45255;BME280;30989;52.078;21.014;2023-03-15T09:12:41;164862.78;;;4.25;78.91
45255;BME280;30989;52.078;21.014;2023-03-15T09:15:08;164884.13;;;4.33;80.82
45255;BME280;30989;52.078;21.014;2023-03-15T09:17:33;164926.81;;;4.49;81.43
45255;BME280;30989;52.078;21.014;2023-03-15T09:19:59;164977.50;;;4.68;80.61
45255;BME280;30989;52.078;21.014;2023-03-15T09:22:24;164962.84;;;4.63;80.04
45255;BME280;30989;52.078;21.014;2023-03-15T09:24:50;165053.56;;;4.97;78.45
45255;BME280;30989;52.078;21.014;2023-03-15T09:27:16;165073.56;;;5.05;77.39
45255;BME280;30989;52.078;21.014;2023-03-15T09:29:42;165052.22;;;4.97;76.54
45255;BME280;30989;52.078;21.014;2023-03-15T09:32:08;165030.88;;;4.89;77.47
45255;BME280;30989;52.078;21.014;2023-03-15T09:34:34;165025.53;;;4.86;77.36
45255;BME280;30989;52.078;21.014;2023-03-15T09:37:00;165028.22;;;4.88;74.96
45255;BME280;30989;52.078;21.014;2023-03-15T09:39:25;165025.53;;;4.86;75.05
45255;BME280;30989;52.078;21.014;2023-03-15T09:41:55;165032.22;;;4.89;76.06
45255;BME280;30989;52.078;21.014;2023-03-15T09:50:01;165097.59;;;5.14;74.71
45255;BME280;30989;52.078;21.014;2023-03-15T09:52:41;165102.94;;;5.16;76.30
45255;BME280;30989;52.078;21.014;2023-03-15T09:55:15;165135.00;;;5.28;77.25
45255;BME280;30989;52.078;21.014;2023-03-15T09:57:49;165159.03;;;5.37;75.48
45255;BME280;30989;52.078;21.014;2023-03-15T10:00:21;165161.72;;;5.38;74.70
45255;BME280;30989;52.078;21.014;2023-03-15T10:02:58;165171.06;;;5.42;74.64
45255;BME280;30989;52.078;21.014;2023-03-15T10:05:43;165168.38;;;5.41;75.41
45255;BME280;30989;52.078;21.014;2023-03-15T10:08:18;165164.38;;;5.39;75.30
45255;BME280;30989;52.078;21.014;2023-03-15T10:13:55;165112.28;;;5.19;75.08
45255;BME280;30989;52.078;21.014;2023-03-15T10:16:47;165113.66;;;5.20;76.32
45255;BME280;30989;52.078;21.014;2023-03-15T10:24:52;165120.34;;;5.23;75.23
45255;BME280;30989;52.078;21.014;2023-03-15T10:27:32;165137.69;;;5.29;74.08
45255;BME280;30989;52.078;21.014;2023-03-15T10:29:59;165172.38;;;5.42;76.74
45255;BME280;30989;52.078;21.014;2023-03-15T10:32:30;165263.16;;;5.77;76.39
45255;BME280;30989;52.078;21.014;2023-03-15T10:35:00;165390.06;;;6.25;72.95
45255;BME280;30989;52.078;21.014;2023-03-15T10:37:25;165448.84;;;6.47;73.21
45255;BME280;30989;52.078;21.014;2023-03-15T10:39:57;165458.19;;;6.51;71.50
45255;BME280;30989;52.078;21.014;2023-03-15T10:42:28;165439.50;;;6.44;70.25
45255;BME280;30989;52.078;21.014;2023-03-15T10:44:55;165428.81;;;6.40;70.29
45255;BME280;30989;52.078;21.014;2023-03-15T10:47:21;165450.16;;;6.48;69.87
45255;BME280;30989;52.078;21.014;2023-03-15T10:49:47;165474.22;;;6.57;69.84
45255;BME280;30989;52.078;21.014;2023-03-15T10:52:38;165446.16;;;6.46;68.55
45255;BME280;30989;52.078;21.014;2023-03-15T10:55:15;165420.78;;;6.37;69.38
45255;BME280;30989;52.078;21.014;2023-03-15T10:57:57;165412.78;;;6.34;71.08
45255;BME280;30989;52.078;21.014;2023-03-15T11:00:33;165468.88;;;6.55;70.52
45255;BME280;30989;52.078;21.014;2023-03-15T11:03:15;165538.34;;;6.82;69.83
45255;BME280;30989;52.078;21.014;2023-03-15T11:05:49;165546.34;;;6.85;68.51
45255;BME280;30989;52.078;21.014;2023-03-15T11:08:17;165573.09;;;6.95;68.26
45255;BME280;30989;52.078;21.014;2023-03-15T11:10:44;165566.41;;;6.92;68.81
45255;BME280;30989;52.078;21.014;2023-03-15T11:13:13;165586.44;;;7.00;68.22
45255;BME280;30989;52.078;21.014;2023-03-15T11:15:48;165581.09;;;6.98;69.05
45255;BME280;30989;52.078;21.014;2023-03-15T11:18:25;165637.22;;;7.19;70.93
45255;BME280;30989;52.078;21.014;2023-03-15T11:20:51;165657.25;;;7.27;67.16
45255;BME280;30989;52.078;21.014;2023-03-15T11:23:23;165631.88;;;7.17;69.08
45255;BME280;30989;52.078;21.014;2023-03-15T11:25:50;165661.28;;;7.28;69.93
45255;BME280;30989;52.078;21.014;2023-03-15T11:28:19;165685.34;;;7.37;68.42
45255;BME280;30989;52.078;21.014;2023-03-15T11:30:54;165654.59;;;7.26;66.35
45255;BME280;30989;52.078;21.014;2023-03-15T11:35:59;165651.91;;;7.25;68.98
45255;BME280;30989;52.078;21.014;2023-03-15T11:38:30;165613.16;;;7.10;67.35
45255;BME280;30989;52.078;21.014;2023-03-15T11:40:58;165581.09;;;6.98;67.53
45255;BME280;30989;52.078;21.014;2023-03-15T11:43:33;165543.69;;;6.84;67.40
45255;BME280;30989;52.078;21.014;2023-03-15T11:46:16;165515.63;;;6.73;68.35
45255;BME280;30989;52.078;21.014;2023-03-15T11:48:56;165549.03;;;6.86;68.15
45255;BME280;30989;52.078;21.014;2023-03-15T11:51:34;165645.25;;;7.22;68.60
45255;BME280;30989;52.078;21.014;2023-03-15T11:54:13;165701.38;;;7.43;65.66
45255;BME280;30989;52.078;21.014;2023-03-15T11:57:06;165714.75;;;7.49;66.09
45255;BME280;30989;52.078;21.014;2023-03-15T11:59:33;165746.81;;;7.61;64.40
45255;BME280;30989;52.078;21.014;2023-03-15T12:04:37;165851.09;;;8.00;66.08
45255;BME280;30989;52.078;21.014;2023-03-15T12:07:28;165843.06;;;7.97;63.88
45255;BME280;30989;52.078;21.014;2023-03-15T12:17:54;165893.88;;;8.17;63.99
45255;BME280;30989;52.078;21.014;2023-03-15T12:20:30;165923.31;;;8.28;63.15
45255;BME280;30989;52.078;21.014;2023-03-15T12:25:38;165776.22;;;7.72;62.41
45255;BME280;30989;52.078;21.014;2023-03-15T12:28:21;165705.38;;;7.45;63.22
45255;BME280;30989;52.078;21.014;2023-03-15T12:30:55;165645.25;;;7.22;64.19
45255;BME280;30989;52.078;21.014;2023-03-15T12:33:24;165587.78;;;7.00;63.90
45255;BME280;30989;52.078;21.014;2023-03-15T12:36:00;165527.66;;;6.77;65.29
45255;BME280;30989;52.078;21.014;2023-03-15T12:38:35;165490.25;;;6.63;64.27
45255;BME280;30989;52.078;21.014;2023-03-15T12:41:05;165424.78;;;6.38;65.11
45255;BME280;30989;52.078;21.014;2023-03-15T12:43:37;165387.41;;;6.24;66.16
45255;BME280;30989;52.078;21.014;2023-03-15T12:46:04;165358.03;;;6.13;66.63
45255;BME280;30989;52.078;21.014;2023-03-15T12:48:30;165332.66;;;6.03;67.62
45255;BME280;30989;52.078;21.014;2023-03-15T12:51:01;165339.31;;;6.06;66.44
45255;BME280;30989;52.078;21.014;2023-03-15T12:53:33;165319.28;;;5.98;66.38
45255;BME280;30989;52.078;21.014;2023-03-15T12:56:21;165299.25;;;5.91;67.96
45255;BME280;30989;52.078;21.014;2023-03-15T12:58:53;165313.94;;;5.96;68.04
45255;BME280;30989;52.078;21.014;2023-03-15T13:01:19;165335.31;;;6.04;68.33
45255;BME280;30989;52.078;21.014;2023-03-15T13:03:53;165364.69;;;6.16;68.59
45255;BME280;30989;52.078;21.014;2023-03-15T13:06:43;165370.03;;;6.18;67.42
45255;BME280;30989;52.078;21.014;2023-03-15T13:09:46;165360.69;;;6.14;67.14
45255;BME280;30989;52.078;21.014;2023-03-15T13:12:28;165343.31;;;6.07;68.04
45255;BME280;30989;52.078;21.014;2023-03-15T13:15:07;165348.66;;;6.09;66.84
45255;BME280;30989;52.078;21.014;2023-03-15T13:25:45;165355.34;;;6.12;68.76
45255;BME280;30989;52.078;21.014;2023-03-15T13:28:37;165362.03;;;6.14;67.90
45255;BME280;30989;52.078;21.014;2023-03-15T13:31:20;165395.41;;;6.27;68.50
45255;BME280;30989;52.078;21.014;2023-03-15T13:33:51;165490.25;;;6.63;66.94
45255;BME280;30989;52.078;21.014;2023-03-15T13:36:23;165527.66;;;6.77;67.64
45255;BME280;30989;52.078;21.014;2023-03-15T13:38:52;165529.00;;;6.78;67.04
45255;BME280;30989;52.078;21.014;2023-03-15T13:43:48;165486.25;;;6.62;66.49
45255;BME280;30989;52.078;21.014;2023-03-15T13:46:17;165479.56;;;6.59;65.27
45255;BME280;30989;52.078;21.014;2023-03-15T13:48:45;165479.56;;;6.59;66.02
45255;BME280;30989;52.078;21.014;2023-03-15T13:53:42;165480.91;;;6.60;63.28
45255;BME280;30989;52.078;21.014;2023-03-15T13:56:08;165503.59;;;6.68;65.20